createdAt,value
2019-03-06T00:02:54.067Z,84.20
2019-03-06T00:07:56.081Z,84.47
2019-03-06T00:12:58.333Z,84.53
2019-03-06T00:18:00.767Z,84.48
2019-03-06T00:23:02.785Z,84.63
2019-03-06T00:28:05.383Z,84.21
2019-03-06T00:33:07.599Z,84.31
2019-03-06T00:38:09.597Z,84.00
2019-03-06T00:43:12.393Z,83.16
2019-03-06T00:48:14.417Z,83.77
2019-03-06T00:53:17.653Z,84.00
2019-03-06T00:58:19.930Z,83.55
2019-03-06T01:03:22.313Z,82.89
2019-03-06T01:08:24.470Z,82.95
2019-03-06T01:13:26.586Z,83.43
2019-03-06T01:18:28.609Z,83.50
2019-03-06T01:23:30.980Z,83.59
2019-03-06T01:28:33.321Z,83.28
2019-03-06T01:33:46.873Z,82.62
2019-03-06T01:39:20.227Z,83.13
2019-03-06T01:44:26.184Z,83.10
2019-03-06T01:49:28.204Z,82.87
2019-03-06T01:54:30.245Z,82.89
2019-03-06T01:59:32.319Z,83.59
2019-03-06T02:04:34.423Z,83.25
2019-03-06T02:09:36.513Z,83.31
2019-03-06T02:14:38.652Z,83.19
2019-03-06T02:19:40.750Z,83.24
2019-03-06T02:24:42.812Z,83.21
2019-03-06T02:29:44.838Z,83.56
2019-03-06T02:34:47.085Z,83.38
2019-03-06T02:39:49.200Z,83.77
2019-03-06T02:44:51.320Z,84.35
2019-03-06T02:49:53.398Z,84.29
2019-03-06T02:54:55.570Z,84.42
2019-03-06T03:00:26.239Z,84.55
2019-03-06T03:05:39.632Z,84.59
2019-03-06T03:10:41.661Z,84.88
2019-03-06T03:15:43.691Z,84.74
2019-03-06T03:20:46.136Z,84.81
2019-03-06T03:25:48.262Z,85.07
2019-03-06T03:30:50.356Z,85.49
2019-03-06T03:35:52.446Z,85.27
2019-03-06T03:40:54.467Z,85.32
2019-03-06T03:45:56.467Z,85.97
2019-03-06T03:50:58.568Z,86.81
2019-03-06T03:56:00.647Z,86.44
2019-03-06T04:01:02.914Z,86.55
2019-03-06T04:06:04.988Z,86.34
2019-03-06T04:11:07.458Z,86.40
2019-03-06T04:16:09.499Z,86.70
2019-03-06T04:21:11.520Z,86.51
2019-03-06T04:26:13.598Z,86.83
2019-03-06T04:31:15.637Z,87.01
2019-03-06T04:36:17.666Z,87.38
2019-03-06T04:41:19.667Z,87.53
2019-03-06T04:46:21.701Z,87.47
2019-03-06T04:51:24.110Z,87.51
2019-03-06T04:56:26.314Z,87.58
2019-03-06T05:01:28.417Z,88.29
2019-03-06T05:06:30.591Z,88.85
2019-03-06T05:11:32.631Z,88.41
2019-03-06T05:16:58.570Z,88.03
2019-03-06T05:22:00.640Z,88.59
2019-03-06T05:27:02.713Z,89.00
2019-03-06T05:32:30.511Z,88.73
2019-03-06T05:38:23.531Z,88.71
2019-03-06T05:43:25.621Z,89.44
2019-03-06T05:48:27.948Z,89.18
2019-03-06T05:53:29.997Z,89.36
2019-03-06T05:58:32.073Z,88.84
2019-03-06T06:03:34.161Z,89.02
2019-03-06T06:08:36.477Z,88.97
2019-03-06T06:13:38.587Z,88.92
2019-03-06T06:18:40.833Z,88.57
2019-03-06T06:23:49.471Z,88.85
2019-03-06T06:28:51.562Z,88.44
2019-03-06T06:33:53.594Z,88.57
2019-03-06T06:38:56.031Z,88.23
2019-03-06T06:43:58.107Z,88.35
2019-03-06T06:49:00.144Z,88.14
2019-03-06T06:54:10.657Z,87.78
2019-03-06T06:59:20.770Z,87.92
2019-03-06T07:05:04.871Z,87.69
2019-03-06T07:10:25.323Z,87.34
2019-03-06T07:15:42.663Z,86.71
2019-03-06T07:21:03.368Z,86.44
2019-03-06T07:26:30.906Z,85.84
2019-03-06T07:31:49.514Z,85.47
2019-03-06T07:36:58.776Z,84.84
2019-03-06T07:42:29.456Z,84.33
2019-03-06T07:47:57.137Z,83.81
2019-03-06T07:54:27.715Z,83.22
2019-03-06T07:59:29.721Z,82.91
2019-03-06T08:04:31.920Z,82.41
2019-03-06T08:09:34.060Z,82.13
2019-03-06T08:14:56.139Z,81.71
2019-03-06T08:20:16.688Z,80.98
2019-03-06T08:25:27.692Z,80.29
2019-03-06T08:30:31.967Z,80.00
2019-03-06T08:35:34.065Z,79.54
2019-03-06T08:40:36.134Z,78.88
2019-03-06T08:46:00.504Z,77.79
2019-03-06T08:51:08.411Z,77.32
2019-03-06T08:56:16.248Z,76.42
2019-03-06T09:02:00.078Z,76.28
2019-03-06T09:07:06.929Z,75.71
2019-03-06T09:12:26.663Z,74.07
2019-03-06T09:17:51.330Z,73.75
2019-03-06T09:23:03.004Z,72.32
2019-03-06T09:28:42.807Z,71.78
2019-03-06T09:34:09.612Z,71.04
2019-03-06T09:39:41.057Z,69.70
2019-03-06T09:45:05.712Z,69.22
2019-03-06T09:50:33.813Z,68.57
2019-03-06T09:56:01.450Z,68.81
2019-03-06T10:01:22.066Z,68.31
2019-03-06T10:06:53.126Z,67.50
2019-03-06T10:12:02.895Z,66.87
2019-03-06T10:17:14.565Z,65.82
2019-03-06T10:22:17.239Z,66.07
2019-03-06T10:27:19.273Z,66.25
2019-03-06T10:32:21.537Z,65.16
2019-03-06T10:37:23.614Z,65.10
2019-03-06T10:42:25.726Z,62.31
2019-03-06T10:47:27.818Z,62.31
2019-03-06T10:52:29.919Z,59.81
2019-03-06T10:57:31.988Z,57.25
2019-03-06T11:02:34.420Z,57.87
2019-03-06T11:07:36.718Z,56.95
2019-03-06T11:12:39.084Z,57.34
2019-03-06T11:17:41.155Z,53.96
2019-03-06T11:22:43.698Z,53.96
2019-03-06T11:27:46.056Z,53.18
2019-03-06T11:32:54.388Z,51.04
2019-03-06T11:37:52.701Z,50.85
2019-03-06T11:42:54.827Z,48.35
2019-03-06T11:47:57.140Z,52.43
2019-03-06T11:52:59.192Z,49.01
2019-03-06T11:58:01.396Z,48.76
2019-03-06T12:03:05.055Z,46.19
2019-03-06T12:08:10.035Z,47.40
2019-03-06T12:13:13.775Z,46.45
2019-03-06T12:18:16.896Z,48.25
2019-03-06T12:23:19.675Z,44.58
2019-03-06T12:28:21.803Z,44.33
2019-03-06T12:33:25.897Z,44.44
2019-03-06T12:38:27.992Z,44.37
2019-03-06T12:43:30.272Z,45.08
2019-03-06T12:48:32.765Z,43.32
2019-03-06T12:53:34.892Z,44.31
2019-03-06T12:58:37.838Z,44.60
2019-03-06T13:03:39.963Z,43.68
2019-03-06T13:08:49.936Z,43.82
2019-03-06T13:13:46.173Z,44.85
2019-03-06T13:18:48.262Z,43.55
2019-03-06T13:23:50.773Z,43.45
2019-03-06T13:28:57.406Z,45.42
2019-03-06T13:34:28.734Z,44.97
2019-03-06T13:39:30.988Z,44.91
2019-03-06T13:44:33.054Z,45.26
2019-03-06T13:49:35.179Z,45.58
2019-03-06T13:54:37.399Z,46.54
2019-03-06T13:59:39.517Z,46.05
2019-03-06T14:04:41.604Z,42.94
2019-03-06T14:09:44.075Z,41.62
2019-03-06T14:14:46.076Z,42.36
2019-03-06T14:19:48.173Z,41.68
2019-03-06T14:24:50.245Z,42.13
2019-03-06T14:29:52.673Z,41.28
2019-03-06T14:34:55.754Z,40.72
2019-03-06T14:39:59.394Z,39.28
2019-03-06T14:45:01.840Z,38.90
2019-03-06T14:50:04.310Z,38.08
2019-03-06T14:55:08.696Z,38.15
2019-03-06T15:00:12.712Z,37.25
2019-03-06T15:05:15.536Z,33.32
2019-03-06T15:10:17.770Z,36.13
2019-03-06T15:15:19.980Z,38.44
2019-03-06T15:20:22.489Z,39.92
2019-03-06T15:25:24.656Z,38.09
2019-03-06T15:30:26.795Z,36.32
2019-03-06T15:35:29.238Z,36.07
2019-03-06T15:40:32.208Z,36.92
2019-03-06T15:45:34.343Z,35.80
2019-03-06T15:50:36.449Z,37.91
2019-03-06T15:55:38.974Z,38.13
2019-03-06T16:00:46.137Z,37.57
2019-03-06T16:05:45.943Z,38.15
2019-03-06T16:10:48.043Z,38.37
2019-03-06T16:15:50.283Z,38.68
2019-03-06T16:20:52.494Z,39.43
2019-03-06T16:25:54.985Z,40.36
2019-03-06T16:30:57.104Z,40.12
2019-03-06T16:35:59.447Z,40.52
2019-03-06T16:41:01.532Z,41.22
2019-03-06T16:46:03.854Z,41.31
2019-03-06T16:51:08.114Z,40.87
2019-03-06T16:56:10.848Z,41.80
2019-03-06T17:01:13.267Z,45.18
2019-03-06T17:06:15.342Z,47.97
2019-03-06T17:11:17.551Z,48.81
2019-03-06T17:16:19.962Z,48.96
2019-03-06T17:21:22.055Z,49.24
2019-03-06T17:26:25.089Z,48.53
2019-03-06T17:31:27.530Z,48.63
2019-03-06T17:36:29.966Z,48.46
2019-03-06T17:41:32.113Z,48.60
2019-03-06T17:46:34.296Z,48.63
2019-03-06T17:51:36.366Z,48.51
2019-03-06T17:56:38.411Z,49.95
2019-03-06T18:01:40.541Z,51.37
2019-03-06T18:06:42.771Z,52.78
2019-03-06T18:11:44.955Z,56.20
2019-03-06T18:16:47.188Z,56.91
2019-03-06T18:21:49.256Z,57.89
2019-03-06T18:26:51.304Z,62.46
2019-03-06T18:31:53.729Z,62.46
2019-03-06T18:36:55.845Z,64.15
2019-03-06T18:41:58.134Z,64.23
2019-03-06T18:47:00.455Z,64.23
2019-03-06T18:52:02.743Z,67.03
2019-03-06T18:57:05.154Z,67.03
2019-03-06T19:02:07.325Z,70.12
2019-03-06T19:07:09.629Z,70.12
2019-03-06T19:12:11.772Z,69.83
2019-03-06T19:17:13.878Z,69.34
2019-03-06T19:22:16.045Z,69.27
2019-03-06T19:27:18.219Z,70.19
2019-03-06T19:32:20.329Z,70.42
2019-03-06T19:37:22.527Z,71.03
2019-03-06T19:42:24.620Z,70.72
2019-03-06T19:47:27.053Z,70.72
2019-03-06T19:52:29.125Z,70.17
2019-03-06T19:57:50.484Z,69.23
2019-03-06T20:02:52.655Z,70.54
2019-03-06T20:07:54.740Z,70.00
2019-03-06T20:12:57.084Z,70.00
2019-03-06T20:18:03.821Z,70.60
2019-03-06T20:23:06.317Z,71.80
2019-03-06T20:28:08.640Z,72.13
2019-03-06T20:33:11.141Z,71.38
2019-03-06T20:38:13.453Z,68.47
2019-03-06T20:43:15.612Z,68.47
2019-03-06T20:48:17.721Z,67.90
2019-03-06T20:53:19.938Z,67.16
2019-03-06T20:58:34.128Z,69.27
2019-03-06T21:03:36.277Z,69.17
2019-03-06T21:08:38.464Z,67.88
2019-03-06T21:13:40.950Z,68.67
2019-03-06T21:18:43.083Z,68.40
2019-03-06T21:23:45.255Z,68.41
2019-03-06T21:28:52.649Z,68.41
2019-03-06T21:33:54.960Z,68.12
2019-03-06T21:38:57.049Z,67.95
2019-03-06T21:43:59.200Z,67.95
2019-03-06T21:49:01.901Z,67.55
2019-03-06T21:54:04.083Z,67.99
2019-03-06T21:59:06.157Z,67.65
2019-03-06T22:04:08.250Z,65.91
2019-03-06T22:09:12.362Z,66.14
2019-03-06T22:14:14.487Z,66.14
2019-03-06T22:19:16.600Z,65.78
2019-03-06T22:24:18.727Z,66.94
2019-03-06T22:29:20.906Z,66.94
2019-03-06T22:34:23.087Z,66.19
2019-03-06T22:39:25.446Z,62.98
2019-03-06T22:44:27.599Z,65.96
2019-03-06T22:49:29.687Z,67.10
2019-03-06T22:54:31.802Z,70.14
2019-03-06T22:59:33.845Z,69.94
2019-03-06T23:04:36.016Z,69.38
2019-03-06T23:09:38.116Z,69.91
2019-03-06T23:14:40.359Z,69.30
2019-03-06T23:19:42.427Z,69.39
2019-03-06T23:24:44.485Z,69.39
2019-03-06T23:29:46.819Z,69.19
2019-03-06T23:34:48.859Z,70.56
2019-03-06T23:39:50.913Z,72.83
2019-03-06T23:44:53.181Z,71.12
2019-03-06T23:49:55.262Z,72.71
2019-03-06T23:54:57.370Z,72.22
2019-03-06T23:59:59.408Z,72.22
